createdAt,value
2017-09-17T00:00:33.360Z,9.30
2017-09-17T00:01:07.862Z,9.30
2017-09-17T00:01:41.569Z,9.30
2017-09-17T00:02:15.862Z,9.30
2017-09-17T00:02:49.584Z,9.30
2017-09-17T00:03:23.318Z,9.30
2017-09-17T00:03:57.054Z,9.30
2017-09-17T00:04:31.845Z,9.30
2017-09-17T00:05:05.573Z,9.30
2017-09-17T00:05:39.296Z,9.30
2017-09-17T00:06:13.034Z,9.30
2017-09-17T00:06:47.572Z,9.20
2017-09-17T00:07:21.294Z,9.20
2017-09-17T00:07:55.020Z,9.30
2017-09-17T00:08:29.514Z,9.20
2017-09-17T00:09:03.232Z,9.20
2017-09-17T00:09:37.344Z,9.30
2017-09-17T00:10:11.068Z,9.30
2017-09-17T00:10:44.808Z,9.30
2017-09-17T00:11:19.297Z,9.30
2017-09-17T00:11:53.020Z,9.20
2017-09-17T00:12:26.741Z,9.30
2017-09-17T00:13:00.454Z,9.30
2017-09-17T00:13:34.159Z,9.30
2017-09-17T00:14:07.887Z,9.30
2017-09-17T00:14:42.011Z,9.30
2017-09-17T00:15:15.741Z,9.30
2017-09-17T00:15:49.464Z,9.30
2017-09-17T00:16:23.196Z,9.30
2017-09-17T00:16:56.908Z,9.30
2017-09-17T00:17:30.628Z,9.30
2017-09-17T00:18:05.104Z,9.20
2017-09-17T00:18:38.825Z,9.20
2017-09-17T00:19:13.327Z,9.30
2017-09-17T00:19:48.111Z,9.20
2017-09-17T00:20:21.841Z,9.20
2017-09-17T00:20:56.453Z,9.20
2017-09-17T00:21:30.928Z,9.20
2017-09-17T00:22:04.635Z,9.20
2017-09-17T00:22:38.171Z,9.20
2017-09-17T00:23:11.885Z,9.20
2017-09-17T00:23:45.598Z,9.20
2017-09-17T00:24:19.332Z,9.20
2017-09-17T00:24:53.457Z,9.20
2017-09-17T00:25:27.182Z,9.20
2017-09-17T00:26:00.901Z,9.20
2017-09-17T00:26:34.646Z,9.20
2017-09-17T00:27:08.365Z,9.20
2017-09-17T00:27:42.876Z,9.20
2017-09-17T00:28:17.357Z,9.10
2017-09-17T00:28:51.105Z,9.20
2017-09-17T00:29:24.818Z,9.20
2017-09-17T00:29:58.877Z,9.20
2017-09-17T00:30:33.376Z,9.10
2017-09-17T00:31:07.853Z,9.10
2017-09-17T00:31:41.215Z,9.10
2017-09-17T00:32:14.955Z,9.10
2017-09-17T00:32:49.443Z,9.10
2017-09-17T00:33:23.145Z,9.10
2017-09-17T00:33:56.875Z,9.10
2017-09-17T00:34:30.594Z,9.10
2017-09-17T00:35:04.341Z,9.10
2017-09-17T00:35:38.818Z,9.10
2017-09-17T00:36:14.028Z,9.00
2017-09-17T00:36:47.393Z,9.00
2017-09-17T00:37:21.142Z,9.10
2017-09-17T00:37:55.618Z,9.00
2017-09-17T00:38:29.351Z,9.00
2017-09-17T00:39:03.080Z,9.00
2017-09-17T00:39:36.798Z,9.10
2017-09-17T00:40:10.446Z,9.00
2017-09-17T00:40:44.173Z,9.00
2017-09-17T00:41:17.203Z,9.00
2017-09-17T00:41:50.936Z,9.00
2017-09-17T00:42:24.650Z,8.90
2017-09-17T00:42:59.138Z,8.90
2017-09-17T00:43:32.851Z,8.90
2017-09-17T00:44:07.340Z,8.90
2017-09-17T00:44:41.106Z,8.80
2017-09-17T00:45:14.860Z,8.90
2017-09-17T00:45:48.588Z,8.80
2017-09-17T00:46:22.295Z,8.80
2017-09-17T00:46:56.013Z,8.80
2017-09-17T00:47:30.484Z,8.80
2017-09-17T00:48:04.113Z,8.80
2017-09-17T00:48:38.597Z,8.80
2017-09-17T00:49:12.313Z,8.80
2017-09-17T00:49:46.108Z,8.70
2017-09-17T00:50:19.972Z,8.70
2017-09-17T00:50:53.341Z,8.70
2017-09-17T00:51:26.380Z,8.70
2017-09-17T00:51:59.407Z,8.70
2017-09-17T00:52:32.232Z,8.70
2017-09-17T00:53:05.990Z,8.70
2017-09-17T00:53:39.782Z,8.70
2017-09-17T00:54:13.561Z,8.60
2017-09-17T00:54:46.586Z,8.60
2017-09-17T00:55:20.167Z,8.60
2017-09-17T00:55:53.531Z,8.60
2017-09-17T00:56:27.247Z,8.60
2017-09-17T00:57:00.604Z,8.70
2017-09-17T00:57:34.310Z,8.70
2017-09-17T00:58:08.052Z,8.70
2017-09-17T00:58:41.421Z,8.70
2017-09-17T00:59:14.802Z,8.70
2017-09-17T00:59:48.515Z,8.70
2017-09-17T01:00:22.543Z,8.70
2017-09-17T01:00:55.905Z,8.70
2017-09-17T01:01:30.040Z,8.70
2017-09-17T01:02:03.749Z,8.70
2017-09-17T01:02:37.507Z,8.70
2017-09-17T01:03:10.906Z,8.70
2017-09-17T01:03:44.615Z,8.70
2017-09-17T01:04:18.331Z,8.70
2017-09-17T01:04:51.685Z,8.70
2017-09-17T01:05:25.767Z,8.70
2017-09-17T01:05:59.204Z,8.70
2017-09-17T01:06:33.732Z,8.70
2017-09-17T01:07:08.233Z,8.70
2017-09-17T01:07:42.729Z,8.70
2017-09-17T01:08:16.090Z,8.70
2017-09-17T01:08:49.814Z,8.70
2017-09-17T01:09:24.305Z,8.70
2017-09-17T01:09:58.452Z,8.70
2017-09-17T01:10:32.130Z,8.70
2017-09-17T01:11:05.154Z,8.70
2017-09-17T01:11:38.512Z,8.70
2017-09-17T01:12:12.239Z,8.70
2017-09-17T01:12:45.592Z,8.70
2017-09-17T01:13:19.116Z,8.60
2017-09-17T01:13:52.476Z,8.60
2017-09-17T01:14:25.695Z,8.60
2017-09-17T01:15:00.177Z,8.60
2017-09-17T01:15:34.213Z,8.60
2017-09-17T01:16:07.936Z,8.60
2017-09-17T01:16:41.657Z,8.60
2017-09-17T01:17:15.367Z,8.60
2017-09-17T01:17:49.876Z,8.50
2017-09-17T01:18:24.028Z,8.60
2017-09-17T01:18:57.752Z,8.50
2017-09-17T01:19:31.137Z,8.60
2017-09-17T01:20:04.514Z,8.60
2017-09-17T01:20:37.937Z,8.60
2017-09-17T01:21:10.990Z,8.60
2017-09-17T01:21:45.138Z,8.60
2017-09-17T01:22:18.166Z,8.60
2017-09-17T01:22:52.335Z,8.60
2017-09-17T01:23:26.074Z,8.60
2017-09-17T01:23:59.444Z,8.60
2017-09-17T01:24:33.235Z,8.60
2017-09-17T01:25:07.037Z,8.60
2017-09-17T01:25:40.732Z,8.60
2017-09-17T01:26:14.125Z,8.60
2017-09-17T01:26:47.164Z,8.60
2017-09-17T01:27:22.388Z,8.60
2017-09-17T01:27:56.531Z,8.60
2017-09-17T01:28:30.276Z,8.60
2017-09-17T01:29:03.986Z,8.60
2017-09-17T01:29:38.477Z,8.60
2017-09-17T01:30:12.201Z,8.60
2017-09-17T01:30:46.207Z,8.50
2017-09-17T01:31:19.928Z,8.60
2017-09-17T01:31:53.660Z,8.50
2017-09-17T01:32:28.148Z,8.50
2017-09-17T01:33:01.967Z,8.50
2017-09-17T01:33:36.453Z,8.50
2017-09-17T01:34:10.177Z,8.50
2017-09-17T01:34:43.911Z,8.50
2017-09-17T01:35:17.642Z,8.50
2017-09-17T01:35:52.477Z,8.50
2017-09-17T01:36:26.189Z,8.50
2017-09-17T01:36:59.945Z,8.50
2017-09-17T01:37:34.443Z,8.60
2017-09-17T01:38:08.925Z,8.50
2017-09-17T01:38:42.644Z,8.50
2017-09-17T01:39:16.361Z,8.50
2017-09-17T01:39:50.093Z,8.60
2017-09-17T01:40:23.817Z,8.60
2017-09-17T01:40:58.397Z,8.50
2017-09-17T01:41:31.793Z,8.50
2017-09-17T01:42:05.510Z,8.50
2017-09-17T01:42:39.997Z,8.60
2017-09-17T01:43:13.725Z,8.50
2017-09-17T01:43:47.443Z,8.60
2017-09-17T01:44:21.158Z,8.60
2017-09-17T01:44:54.520Z,8.60
2017-09-17T01:45:28.240Z,8.60
2017-09-17T01:46:02.240Z,8.60
2017-09-17T01:46:35.955Z,8.60
2017-09-17T01:47:10.441Z,8.60
2017-09-17T01:47:45.668Z,8.60
2017-09-17T01:48:20.150Z,8.60
2017-09-17T01:48:53.873Z,8.60
2017-09-17T01:49:27.984Z,8.60
2017-09-17T01:50:02.488Z,8.60
2017-09-17T01:50:36.977Z,8.60
2017-09-17T01:51:11.054Z,8.50
2017-09-17T01:51:44.768Z,8.60
2017-09-17T01:52:18.591Z,8.50
2017-09-17T01:52:53.078Z,8.50
2017-09-17T01:53:27.577Z,8.50
2017-09-17T01:54:01.292Z,8.50
2017-09-17T01:54:35.778Z,8.50
2017-09-17T01:55:09.491Z,8.50
2017-09-17T01:55:43.970Z,8.50
2017-09-17T01:56:18.009Z,8.50
2017-09-17T01:56:51.721Z,8.50
2017-09-17T01:57:25.431Z,8.50
2017-09-17T01:57:59.149Z,8.50
2017-09-17T01:58:32.532Z,8.50
2017-09-17T01:59:06.346Z,8.50
2017-09-17T01:59:40.841Z,8.40
2017-09-17T02:00:15.337Z,8.40
2017-09-17T02:00:49.064Z,8.40
2017-09-17T02:01:23.175Z,8.40
2017-09-17T02:01:56.974Z,8.40
2017-09-17T02:02:30.691Z,8.40
2017-09-17T02:03:04.422Z,8.40
2017-09-17T02:03:38.925Z,8.40
2017-09-17T02:04:13.415Z,8.40
2017-09-17T02:04:47.241Z,8.40
2017-09-17T02:05:21.741Z,8.40
2017-09-17T02:05:56.313Z,8.40
2017-09-17T02:06:30.050Z,8.40
2017-09-17T02:07:04.541Z,8.40
2017-09-17T02:07:39.049Z,8.40
2017-09-17T02:08:13.012Z,8.40
2017-09-17T02:08:46.742Z,8.40
2017-09-17T02:09:21.244Z,8.40
2017-09-17T02:09:55.737Z,8.30
2017-09-17T02:10:29.460Z,8.30
2017-09-17T02:11:03.939Z,8.30
2017-09-17T02:11:37.994Z,8.30
2017-09-17T02:12:11.543Z,8.30
2017-09-17T02:12:45.269Z,8.30
2017-09-17T02:13:18.994Z,8.30
2017-09-17T02:13:52.727Z,8.30
2017-09-17T02:14:27.210Z,8.20
2017-09-17T02:15:00.745Z,8.20
2017-09-17T02:15:34.465Z,8.20
2017-09-17T02:16:08.206Z,8.20
2017-09-17T02:16:43.060Z,8.20
2017-09-17T02:17:16.785Z,8.20
2017-09-17T02:17:50.525Z,8.20
2017-09-17T02:18:24.266Z,8.10
2017-09-17T02:18:57.986Z,8.10
2017-09-17T02:19:32.461Z,8.10
2017-09-17T02:20:06.182Z,8.20
2017-09-17T02:20:40.659Z,8.10
2017-09-17T02:21:14.382Z,8.10
2017-09-17T02:21:49.207Z,8.10
2017-09-17T02:22:23.676Z,8.10
2017-09-17T02:22:57.389Z,8.10
2017-09-17T02:23:31.916Z,8.10
2017-09-17T02:24:06.401Z,8.10
2017-09-17T02:24:40.896Z,8.10
2017-09-17T02:25:14.644Z,8.10
2017-09-17T02:25:48.362Z,8.10
2017-09-17T02:26:22.071Z,8.10
2017-09-17T02:26:55.803Z,8.10
2017-09-17T02:27:29.537Z,8.10
2017-09-17T02:28:03.252Z,8.10
2017-09-17T02:28:38.599Z,8.10
2017-09-17T02:29:13.073Z,8.10
2017-09-17T02:29:46.794Z,8.10
2017-09-17T02:30:21.285Z,8.10
2017-09-17T02:30:55.005Z,8.10
2017-09-17T02:31:29.609Z,8.10
2017-09-17T02:32:04.144Z,8.10
2017-09-17T02:32:37.864Z,8.10
2017-09-17T02:33:11.581Z,8.10
2017-09-17T02:33:45.300Z,8.10
2017-09-17T02:34:19.021Z,8.10
2017-09-17T02:34:52.751Z,8.10
2017-09-17T02:35:27.237Z,8.10
2017-09-17T02:36:00.954Z,8.10
2017-09-17T02:36:35.430Z,8.10
2017-09-17T02:37:09.493Z,8.10
2017-09-17T02:37:43.201Z,8.10
2017-09-17T02:38:16.919Z,8.10
2017-09-17T02:38:51.275Z,8.10
2017-09-17T02:39:24.982Z,8.10
2017-09-17T02:39:58.357Z,8.10
2017-09-17T02:40:32.084Z,8.10
2017-09-17T02:41:05.809Z,8.10
2017-09-17T02:41:40.290Z,8.10
2017-09-17T02:42:14.152Z,8.10
2017-09-17T02:42:47.866Z,8.10
2017-09-17T02:43:21.592Z,8.10
2017-09-17T02:43:56.067Z,8.10
2017-09-17T02:44:29.806Z,8.00
2017-09-17T02:45:03.765Z,8.00
2017-09-17T02:45:37.479Z,8.00
2017-09-17T02:46:11.966Z,8.00
2017-09-17T02:46:45.347Z,8.00
2017-09-17T02:47:19.078Z,8.00
2017-09-17T02:47:53.588Z,8.00
2017-09-17T02:48:27.316Z,8.00
2017-09-17T02:49:00.692Z,8.00
2017-09-17T02:49:34.414Z,8.00
2017-09-17T02:50:08.120Z,8.00
2017-09-17T02:50:42.601Z,8.00
2017-09-17T02:51:16.317Z,8.00
2017-09-17T02:51:50.031Z,8.00
2017-09-17T02:52:24.857Z,8.00
2017-09-17T02:52:58.581Z,8.00
2017-09-17T02:53:32.310Z,8.00
2017-09-17T02:54:06.781Z,8.00
2017-09-17T02:54:40.497Z,8.00
2017-09-17T02:55:14.225Z,8.00
2017-09-17T02:55:47.951Z,8.00
2017-09-17T02:56:21.680Z,8.00
2017-09-17T02:56:55.397Z,8.00
2017-09-17T02:57:29.497Z,8.00
2017-09-17T02:58:03.228Z,8.00
2017-09-17T02:58:37.006Z,8.00
2017-09-17T02:59:10.721Z,8.00
2017-09-17T02:59:44.448Z,8.10
2017-09-17T03:00:18.947Z,8.10
2017-09-17T03:00:53.428Z,8.00
2017-09-17T03:01:27.167Z,8.00
2017-09-17T03:02:00.947Z,8.00
2017-09-17T03:02:35.773Z,8.00
2017-09-17T03:03:09.489Z,8.00
2017-09-17T03:03:43.206Z,8.00
2017-09-17T03:04:16.916Z,8.00
2017-09-17T03:04:50.637Z,8.00
2017-09-17T03:05:24.393Z,8.00
2017-09-17T03:05:57.762Z,8.00
2017-09-17T03:06:31.525Z,8.00
2017-09-17T03:07:05.248Z,7.90
2017-09-17T03:07:39.292Z,7.90
2017-09-17T03:08:13.013Z,7.90
2017-09-17T03:08:46.733Z,7.90
2017-09-17T03:09:20.464Z,7.90
2017-09-17T03:09:54.186Z,7.90
2017-09-17T03:10:27.904Z,7.90
2017-09-17T03:11:01.652Z,7.90
2017-09-17T03:11:35.598Z,7.90
2017-09-17T03:12:09.321Z,7.90
2017-09-17T03:12:43.935Z,7.90
2017-09-17T03:13:17.654Z,7.90
2017-09-17T03:13:51.377Z,7.90
2017-09-17T03:14:25.094Z,7.90
2017-09-17T03:14:59.569Z,7.90
2017-09-17T03:15:33.275Z,7.80
2017-09-17T03:16:06.884Z,7.90
2017-09-17T03:16:41.365Z,7.80
2017-09-17T03:17:15.080Z,7.80
2017-09-17T03:17:49.851Z,7.80
2017-09-17T03:18:23.580Z,7.80
2017-09-17T03:18:58.075Z,7.80
2017-09-17T03:19:31.790Z,7.80
2017-09-17T03:20:05.526Z,7.80
2017-09-17T03:20:39.252Z,7.80
2017-09-17T03:21:12.985Z,7.80
2017-09-17T03:21:46.702Z,7.80
2017-09-17T03:22:20.409Z,7.90
2017-09-17T03:22:54.461Z,7.80
2017-09-17T03:23:28.174Z,7.90
2017-09-17T03:24:01.895Z,7.90
2017-09-17T03:24:35.613Z,7.90
2017-09-17T03:25:10.098Z,7.90
2017-09-17T03:25:43.831Z,7.90
2017-09-17T03:26:17.555Z,7.90
2017-09-17T03:26:51.272Z,7.90
2017-09-17T03:27:24.984Z,7.90
2017-09-17T03:27:59.765Z,7.90
2017-09-17T03:28:33.493Z,7.90
2017-09-17T03:29:07.963Z,7.90
2017-09-17T03:29:41.708Z,7.90
2017-09-17T03:30:15.409Z,7.90
2017-09-17T03:30:49.129Z,7.90
2017-09-17T03:31:22.838Z,7.90
2017-09-17T03:31:56.542Z,7.90
2017-09-17T03:32:31.020Z,7.90
2017-09-17T03:33:05.167Z,7.90
2017-09-17T03:33:39.638Z,7.90
2017-09-17T03:34:13.338Z,7.90
2017-09-17T03:34:47.044Z,7.90
2017-09-17T03:35:21.518Z,7.90
2017-09-17T03:35:55.243Z,7.80
2017-09-17T03:36:29.716Z,7.80
2017-09-17T03:37:03.236Z,7.80
2017-09-17T03:37:37.710Z,7.80
2017-09-17T03:38:11.764Z,7.80
2017-09-17T03:38:45.488Z,7.80
2017-09-17T03:39:19.335Z,7.80
2017-09-17T03:39:53.632Z,7.80
2017-09-17T03:40:28.107Z,7.80
2017-09-17T03:41:01.824Z,7.80
2017-09-17T03:41:36.313Z,7.80
2017-09-17T03:42:09.337Z,7.80
2017-09-17T03:42:43.076Z,7.80
2017-09-17T03:43:17.116Z,7.80
2017-09-17T03:43:50.833Z,7.80
2017-09-17T03:44:24.560Z,7.80
2017-09-17T03:44:58.100Z,7.70
2017-09-17T03:45:31.623Z,7.70
2017-09-17T03:46:05.328Z,7.70
2017-09-17T03:46:39.033Z,7.70
2017-09-17T03:47:13.504Z,7.70
2017-09-17T03:47:47.221Z,7.70
2017-09-17T03:48:21.247Z,7.70
2017-09-17T03:48:54.950Z,7.70
2017-09-17T03:49:28.669Z,7.70
2017-09-17T03:50:02.387Z,7.70
2017-09-17T03:50:36.876Z,7.70
2017-09-17T03:51:10.585Z,7.70
2017-09-17T03:51:44.292Z,7.70
2017-09-17T03:52:18.764Z,7.70
2017-09-17T03:52:52.475Z,7.70
2017-09-17T03:53:26.507Z,7.70
2017-09-17T03:54:00.211Z,7.60
2017-09-17T03:54:33.922Z,7.60
2017-09-17T03:55:07.640Z,7.60
2017-09-17T03:55:41.344Z,7.60
2017-09-17T03:56:15.057Z,7.60
2017-09-17T03:56:48.764Z,7.60
2017-09-17T03:57:22.527Z,7.60
2017-09-17T03:57:57.037Z,7.60
2017-09-17T03:58:31.861Z,7.60
2017-09-17T03:59:06.337Z,7.60
2017-09-17T03:59:40.563Z,7.60
2017-09-17T04:00:14.269Z,7.60
2017-09-17T04:00:48.737Z,7.60
2017-09-17T04:01:22.441Z,7.60
2017-09-17T04:01:56.916Z,7.60
2017-09-17T04:02:30.551Z,7.60
2017-09-17T04:03:04.833Z,7.70
2017-09-17T04:03:38.856Z,7.60
2017-09-17T04:04:13.329Z,7.70
2017-09-17T04:04:47.049Z,7.60
2017-09-17T04:05:21.549Z,7.60
2017-09-17T04:05:55.262Z,7.60
2017-09-17T04:06:28.977Z,7.60
2017-09-17T04:07:02.692Z,7.60
2017-09-17T04:07:36.397Z,7.60
2017-09-17T04:08:10.106Z,7.60
2017-09-17T04:08:44.947Z,7.60
2017-09-17T04:09:18.645Z,7.60
2017-09-17T04:09:52.375Z,7.60
2017-09-17T04:10:26.126Z,7.60
2017-09-17T04:10:59.844Z,7.60
2017-09-17T04:11:33.545Z,7.60
2017-09-17T04:12:07.258Z,7.60
2017-09-17T04:12:41.741Z,7.60
2017-09-17T04:13:15.465Z,7.60
2017-09-17T04:13:50.305Z,7.60
2017-09-17T04:14:24.009Z,7.60
2017-09-17T04:14:57.721Z,7.60
2017-09-17T04:15:31.462Z,7.60
2017-09-17T04:16:05.949Z,7.60
2017-09-17T04:16:39.657Z,7.60
2017-09-17T04:17:14.140Z,7.50
2017-09-17T04:17:47.861Z,7.50
2017-09-17T04:18:22.486Z,7.60
2017-09-17T04:18:57.304Z,7.60
2017-09-17T04:19:31.009Z,7.50
2017-09-17T04:20:04.732Z,7.60
2017-09-17T04:20:38.436Z,7.60
2017-09-17T04:21:12.170Z,7.50
2017-09-17T04:21:45.884Z,7.60
2017-09-17T04:22:19.592Z,7.50
2017-09-17T04:22:53.285Z,7.50
2017-09-17T04:23:26.997Z,7.50
2017-09-17T04:24:01.641Z,7.50
2017-09-17T04:24:35.182Z,7.50
2017-09-17T04:25:08.893Z,7.50
2017-09-17T04:25:43.360Z,7.50
2017-09-17T04:26:17.072Z,7.50
2017-09-17T04:26:50.769Z,7.50
2017-09-17T04:27:24.472Z,7.50
2017-09-17T04:27:58.951Z,7.60
2017-09-17T04:28:32.676Z,7.50
2017-09-17T04:29:07.508Z,7.60
2017-09-17T04:29:41.962Z,7.60
2017-09-17T04:30:15.677Z,7.50
2017-09-17T04:30:49.380Z,7.60
2017-09-17T04:31:23.854Z,7.60
2017-09-17T04:31:57.585Z,7.60
2017-09-17T04:32:32.053Z,7.60
2017-09-17T04:33:05.577Z,7.60
2017-09-17T04:33:40.046Z,7.60
2017-09-17T04:34:14.085Z,7.60
2017-09-17T04:34:48.573Z,7.60
2017-09-17T04:35:22.276Z,7.60
2017-09-17T04:35:56.749Z,7.60
2017-09-17T04:36:30.261Z,7.60
2017-09-17T04:37:03.968Z,7.60
2017-09-17T04:37:38.461Z,7.60
2017-09-17T04:38:12.935Z,7.60
2017-09-17T04:38:46.638Z,7.60
2017-09-17T04:39:20.685Z,7.60
2017-09-17T04:39:54.385Z,7.60
2017-09-17T04:40:28.091Z,7.60
2017-09-17T04:41:01.856Z,7.60
2017-09-17T04:41:36.326Z,7.50
2017-09-17T04:42:10.056Z,7.50
2017-09-17T04:42:44.548Z,7.60
2017-09-17T04:43:19.053Z,7.60
2017-09-17T04:43:53.545Z,7.50
2017-09-17T04:44:27.577Z,7.50
2017-09-17T04:45:01.293Z,7.60
2017-09-17T04:45:34.997Z,7.50
2017-09-17T04:46:08.717Z,7.50
2017-09-17T04:46:42.454Z,7.50
2017-09-17T04:47:16.197Z,7.60
2017-09-17T04:47:49.919Z,7.50
2017-09-17T04:48:24.393Z,7.60
2017-09-17T04:48:58.106Z,7.60
2017-09-17T04:49:32.938Z,7.60
2017-09-17T04:50:06.671Z,7.60
2017-09-17T04:50:40.425Z,7.60
2017-09-17T04:51:14.169Z,7.60
2017-09-17T04:51:47.885Z,7.60
2017-09-17T04:52:22.357Z,7.60
2017-09-17T04:52:56.340Z,7.60
2017-09-17T04:53:30.064Z,7.60
2017-09-17T04:54:03.799Z,7.60
2017-09-17T04:54:37.892Z,7.60
2017-09-17T04:55:11.625Z,7.70
2017-09-17T04:55:45.338Z,7.70
2017-09-17T04:56:19.831Z,7.60
2017-09-17T04:56:53.557Z,7.60
2017-09-17T04:57:28.034Z,7.70
2017-09-17T04:58:01.766Z,7.60
2017-09-17T04:58:35.493Z,7.60
2017-09-17T04:59:09.212Z,7.70
2017-09-17T04:59:43.261Z,7.70
2017-09-17T05:00:16.973Z,7.70
2017-09-17T05:00:50.694Z,7.70
2017-09-17T05:01:24.425Z,7.70
2017-09-17T05:01:58.149Z,7.70
2017-09-17T05:02:31.872Z,7.70
2017-09-17T05:03:05.598Z,7.70
2017-09-17T05:03:39.127Z,7.70
2017-09-17T05:04:12.845Z,7.80
2017-09-17T05:04:46.580Z,7.70
2017-09-17T05:05:20.300Z,7.80
2017-09-17T05:05:54.001Z,7.80
2017-09-17T05:06:27.697Z,7.80
2017-09-17T05:07:01.406Z,7.80
2017-09-17T05:07:35.888Z,7.80
2017-09-17T05:08:09.622Z,7.80
2017-09-17T05:08:44.081Z,7.90
2017-09-17T05:09:17.787Z,7.90
2017-09-17T05:09:51.773Z,7.90
2017-09-17T05:10:25.495Z,7.90
2017-09-17T05:11:00.001Z,7.90
2017-09-17T05:11:34.470Z,7.90
2017-09-17T05:12:08.390Z,7.90
2017-09-17T05:12:42.099Z,8.00
2017-09-17T05:13:16.567Z,8.00
2017-09-17T05:13:50.274Z,8.00
2017-09-17T05:14:23.996Z,8.00
2017-09-17T05:14:58.819Z,8.10
2017-09-17T05:15:33.277Z,8.10
2017-09-17T05:16:06.978Z,8.10
2017-09-17T05:16:40.673Z,8.10
2017-09-17T05:17:14.368Z,8.10
2017-09-17T05:17:48.077Z,8.10
2017-09-17T05:18:22.543Z,8.10
2017-09-17T05:18:56.240Z,8.10
2017-09-17T05:19:29.947Z,8.10
2017-09-17T05:20:04.397Z,8.10
2017-09-17T05:20:38.109Z,8.10
2017-09-17T05:21:11.808Z,8.10
2017-09-17T05:21:45.525Z,8.10
2017-09-17T05:22:19.229Z,8.10
2017-09-17T05:22:53.701Z,8.10
2017-09-17T05:23:27.414Z,8.10
2017-09-17T05:24:01.132Z,8.10
2017-09-17T05:24:35.615Z,8.10
2017-09-17T05:25:09.653Z,8.10
2017-09-17T05:25:43.361Z,8.10
2017-09-17T05:26:17.057Z,8.20
2017-09-17T05:26:50.791Z,8.20
2017-09-17T05:27:24.494Z,8.10
2017-09-17T05:27:58.966Z,8.20
2017-09-17T05:28:32.672Z,8.10
2017-09-17T05:29:06.380Z,8.10
2017-09-17T05:29:40.854Z,8.20
2017-09-17T05:30:14.895Z,8.20
2017-09-17T05:30:49.392Z,8.20
2017-09-17T05:31:23.856Z,8.30
2017-09-17T05:31:57.585Z,8.20
2017-09-17T05:32:32.050Z,8.30
2017-09-17T05:33:05.765Z,8.30
2017-09-17T05:33:39.293Z,8.30
2017-09-17T05:34:12.808Z,8.40
2017-09-17T05:34:46.508Z,8.40
2017-09-17T05:35:20.574Z,8.40
2017-09-17T05:35:54.290Z,8.40
2017-09-17T05:36:27.985Z,8.40
2017-09-17T05:37:01.696Z,8.50
2017-09-17T05:37:35.210Z,8.50
2017-09-17T05:38:09.485Z,8.50
2017-09-17T05:38:42.999Z,8.50
2017-09-17T05:39:17.515Z,8.50
2017-09-17T05:39:51.968Z,8.50
2017-09-17T05:40:26.062Z,8.50
2017-09-17T05:40:59.752Z,8.50
2017-09-17T05:41:33.463Z,8.50
2017-09-17T05:42:07.155Z,8.50
2017-09-17T05:42:40.872Z,8.60
2017-09-17T05:43:15.341Z,8.60
2017-09-17T05:43:49.032Z,8.60
2017-09-17T05:44:22.760Z,8.60
2017-09-17T05:44:57.241Z,8.70
2017-09-17T05:45:31.240Z,8.60
2017-09-17T05:46:04.957Z,8.70
2017-09-17T05:46:39.427Z,8.80
2017-09-17T05:47:13.136Z,8.70
2017-09-17T05:47:46.872Z,8.80
2017-09-17T05:48:20.595Z,8.80
2017-09-17T05:48:54.129Z,8.90
2017-09-17T05:49:28.601Z,9.00
2017-09-17T05:50:02.337Z,9.00
2017-09-17T05:50:36.088Z,9.00
2017-09-17T05:51:09.796Z,9.10
2017-09-17T05:51:44.284Z,9.10
2017-09-17T05:52:17.993Z,9.10
2017-09-17T05:52:52.473Z,9.30
2017-09-17T05:53:26.180Z,9.20
2017-09-17T05:53:59.892Z,9.30
2017-09-17T05:54:34.382Z,9.40
2017-09-17T05:55:08.084Z,9.40
2017-09-17T05:55:42.860Z,9.40
2017-09-17T05:56:16.581Z,9.40
2017-09-17T05:56:50.291Z,9.40
2017-09-17T05:57:24.754Z,9.60
2017-09-17T05:57:58.456Z,9.50
2017-09-17T05:58:32.158Z,9.60
2017-09-17T05:59:05.872Z,9.60
2017-09-17T05:59:40.326Z,9.70
2017-09-17T06:00:14.033Z,9.70
2017-09-17T06:00:48.015Z,9.70
2017-09-17T06:01:21.722Z,9.80
2017-09-17T06:01:55.427Z,9.80
2017-09-17T06:02:29.121Z,9.90
2017-09-17T06:03:02.637Z,9.90
2017-09-17T06:03:36.333Z,10.00
2017-09-17T06:04:10.032Z,10.00
2017-09-17T06:04:43.741Z,10.00
2017-09-17T06:05:17.479Z,10.00
2017-09-17T06:05:52.302Z,10.10
2017-09-17T06:06:26.789Z,10.10
2017-09-17T06:07:00.492Z,10.10
2017-09-17T06:07:34.997Z,10.20
2017-09-17T06:08:09.473Z,10.20
2017-09-17T06:08:43.184Z,10.20
2017-09-17T06:09:16.903Z,10.20
2017-09-17T06:09:50.621Z,10.30
2017-09-17T06:10:24.352Z,10.30
2017-09-17T06:10:58.394Z,10.40
2017-09-17T06:11:32.166Z,10.40
2017-09-17T06:12:06.655Z,10.50
2017-09-17T06:12:41.163Z,10.50
2017-09-17T06:13:14.877Z,10.50
2017-09-17T06:13:49.353Z,10.60
2017-09-17T06:14:23.065Z,10.60
2017-09-17T06:14:56.772Z,10.70
2017-09-17T06:15:31.256Z,10.80
2017-09-17T06:16:05.749Z,10.80
2017-09-17T06:16:39.480Z,10.80
2017-09-17T06:17:13.955Z,10.90
2017-09-17T06:17:47.662Z,10.90
2017-09-17T06:18:21.377Z,11.00
2017-09-17T06:18:55.078Z,11.00
2017-09-17T06:19:28.780Z,11.10
2017-09-17T06:20:02.511Z,11.10
2017-09-17T06:20:36.239Z,11.20
2017-09-17T06:21:10.342Z,11.20
2017-09-17T06:21:44.069Z,11.30
2017-09-17T06:22:17.785Z,11.30
2017-09-17T06:22:51.493Z,11.30
2017-09-17T06:23:25.957Z,11.40
2017-09-17T06:23:59.693Z,11.40
2017-09-17T06:24:34.307Z,11.50
2017-09-17T06:25:08.789Z,11.50
2017-09-17T06:25:42.517Z,11.50
2017-09-17T06:26:16.526Z,11.60
2017-09-17T06:26:50.228Z,11.60
2017-09-17T06:27:24.022Z,11.60
2017-09-17T06:27:57.549Z,11.60
2017-09-17T06:28:31.262Z,11.70
2017-09-17T06:29:05.750Z,11.70
2017-09-17T06:29:39.474Z,11.70
2017-09-17T06:30:13.187Z,11.70
2017-09-17T06:30:46.934Z,11.70
2017-09-17T06:31:20.941Z,11.70
2017-09-17T06:31:55.417Z,11.80
2017-09-17T06:32:29.136Z,11.70
2017-09-17T06:33:03.621Z,11.80
2017-09-17T06:33:37.333Z,11.70
2017-09-17T06:34:11.829Z,11.80
2017-09-17T06:34:45.553Z,11.70
2017-09-17T06:35:19.111Z,11.80
2017-09-17T06:35:53.599Z,11.80
2017-09-17T06:36:27.646Z,11.80
2017-09-17T06:37:01.365Z,11.80
2017-09-17T06:37:35.089Z,11.80
2017-09-17T06:38:08.784Z,11.70
2017-09-17T06:38:48.008Z,11.70
2017-09-17T06:39:23.228Z,11.70
2017-09-17T06:39:56.938Z,11.70
2017-09-17T06:40:31.342Z,11.70
2017-09-17T06:41:05.085Z,11.70
2017-09-17T06:41:39.076Z,11.70
2017-09-17T06:42:12.800Z,11.70
2017-09-17T06:42:46.533Z,11.70
2017-09-17T06:43:20.069Z,11.70
2017-09-17T06:43:53.777Z,11.70
2017-09-17T06:44:28.261Z,11.70
2017-09-17T06:45:01.988Z,11.70
2017-09-17T06:45:36.136Z,11.70
2017-09-17T06:46:09.862Z,11.70
2017-09-17T06:46:44.717Z,11.70
2017-09-17T06:47:18.447Z,11.70
2017-09-17T06:47:52.193Z,11.80
2017-09-17T06:48:25.919Z,11.80
2017-09-17T06:48:59.637Z,11.80
2017-09-17T06:49:33.349Z,11.80
2017-09-17T06:50:07.850Z,11.80
2017-09-17T06:50:42.381Z,11.70
2017-09-17T06:51:16.096Z,11.70
2017-09-17T06:51:50.117Z,11.80
2017-09-17T06:52:23.824Z,11.70
2017-09-17T06:52:57.540Z,11.70
2017-09-17T06:53:32.012Z,11.70
2017-09-17T06:54:05.736Z,11.70
2017-09-17T06:54:40.214Z,11.80
2017-09-17T06:55:13.934Z,11.70
2017-09-17T06:55:48.416Z,11.80
2017-09-17T06:56:22.160Z,11.80
2017-09-17T06:56:56.256Z,11.80
2017-09-17T06:57:30.742Z,11.80
2017-09-17T06:58:05.272Z,11.80
2017-09-17T06:58:38.996Z,11.80
2017-09-17T06:59:12.716Z,11.80
2017-09-17T06:59:46.442Z,11.80
2017-09-17T07:00:20.220Z,11.80
2017-09-17T07:00:54.710Z,11.90
2017-09-17T07:01:29.196Z,11.90
2017-09-17T07:02:03.252Z,11.90
2017-09-17T07:02:36.968Z,11.90
2017-09-17T07:03:10.698Z,11.90
2017-09-17T07:03:44.507Z,11.90
2017-09-17T07:04:18.971Z,12.00
2017-09-17T07:04:52.687Z,12.00
2017-09-17T07:05:26.405Z,12.00
2017-09-17T07:06:00.129Z,12.00
2017-09-17T07:06:33.841Z,12.00
2017-09-17T07:07:07.908Z,12.00
2017-09-17T07:07:41.636Z,12.10
2017-09-17T07:08:15.365Z,12.10
2017-09-17T07:08:49.850Z,12.10
2017-09-17T07:09:23.568Z,12.10
2017-09-17T07:09:57.284Z,12.10
2017-09-17T07:10:31.018Z,12.10
2017-09-17T07:11:04.832Z,12.20
2017-09-17T07:11:39.316Z,12.20
2017-09-17T07:12:13.359Z,12.20
2017-09-17T07:12:47.089Z,12.20
2017-09-17T07:13:20.801Z,12.20
2017-09-17T07:13:54.509Z,12.20
2017-09-17T07:14:29.041Z,12.30
2017-09-17T07:15:02.758Z,12.30
2017-09-17T07:15:36.481Z,12.30
2017-09-17T07:16:10.189Z,12.30
2017-09-17T07:16:44.708Z,12.30
2017-09-17T07:17:18.444Z,12.30
2017-09-17T07:17:52.181Z,12.40
2017-09-17T07:18:26.657Z,12.40
2017-09-17T07:19:00.368Z,12.40
2017-09-17T07:19:34.078Z,12.40
2017-09-17T07:20:08.540Z,12.50
2017-09-17T07:20:42.255Z,12.50
2017-09-17T07:21:15.967Z,12.50
2017-09-17T07:21:50.452Z,12.50
2017-09-17T07:22:24.487Z,12.50
2017-09-17T07:22:58.009Z,12.50
2017-09-17T07:23:31.525Z,12.60
2017-09-17T07:24:05.237Z,12.60
2017-09-17T07:24:39.729Z,12.60
2017-09-17T07:25:13.433Z,12.60
2017-09-17T07:25:47.728Z,12.60
2017-09-17T07:26:21.429Z,12.60
2017-09-17T07:26:55.895Z,12.70
2017-09-17T07:27:29.939Z,12.70
2017-09-17T07:28:04.400Z,12.70
2017-09-17T07:28:38.106Z,12.70
2017-09-17T07:29:11.804Z,12.80